Time;durP1;ratioP1;P1;durP2;ratioP2;P2;SDS_P1;SDS_P2;PMS_P1;PMS_P2;Temp;Humidity;BMP_temperature;BMP_pressure;BME280_temperature;BME280_humidity;BME280_pressure;Samples;Min_cycle;Max_cycle;Signal;HPM_P1;HPM_P2
2021/05/19 00:00:06;;;;;;;1.42;0.70;;;;;;;;;;5049723;28;20055;-73
2021/05/19 00:02:31;;;;;;;3.70;1.30;;;;;;;;;;5048943;28;20486;-73
2021/05/19 00:04:56;;;;;;;1.60;0.98;;;;;;;;;;5049052;28;20013;-73
2021/05/19 00:07:21;;;;;;;1.48;1.00;;;;;;;;;;5059002;28;20044;-73
2021/05/19 00:09:46;;;;;;;2.88;1.10;;;;;;;;;;5047489;28;20033;-72
2021/05/19 00:12:12;;;;;;;1.73;1.10;;;;;;;;;;5045260;28;20017;-72
2021/05/19 00:14:37;;;;;;;1.92;0.98;;;;;;;;;;5047393;28;20025;-71
2021/05/19 00:17:02;;;;;;;1.50;0.90;;;;;;;;;;5047130;28;20025;-72
2021/05/19 00:19:27;;;;;;;1.63;0.90;;;;;;;;;;5046001;28;20036;-72
2021/05/19 00:21:53;;;;;;;1.80;1.10;;;;;;;;;;5046341;28;20029;-73
2021/05/19 00:24:18;;;;;;;2.33;0.93;;;;;;;;;;5052006;28;20020;-72
2021/05/19 00:26:43;;;;;;;1.58;0.90;;;;;;;;;;5050322;28;20418;-73
2021/05/19 00:29:12;;;;;;;3.75;1.13;;;;;;;;;;5057760;28;20472;-73
2021/05/19 00:31:40;;;;;;;2.85;1.10;;;;;;;;;;5055542;28;20029;-72
2021/05/19 00:34:06;;;;;;;3.47;1.10;;;;;;;;;;5051705;28;20052;-73
2021/05/19 00:36:31;;;;;;;1.77;1.20;;;;;;;;;;5060070;28;20036;-72
2021/05/19 00:38:57;;;;;;;2.97;1.00;;;;;;;;;;5058192;28;20402;-73
2021/05/19 00:41:23;;;;;;;1.63;1.05;;;;;;;;;;5057105;28;20145;-72
2021/05/19 00:43:48;;;;;;;1.75;0.90;;;;;;;;;;5046166;28;20423;-72
2021/05/19 00:46:13;;;;;;;2.47;1.00;;;;;;;;;;5047664;28;20025;-73
2021/05/19 00:48:38;;;;;;;1.85;0.85;;;;;;;;;;5047421;28;20033;-72
2021/05/19 00:51:04;;;;;;;4.32;0.90;;;;;;;;;;5049674;28;20438;-72
2021/05/19 00:53:29;;;;;;;1.45;0.70;;;;;;;;;;5053327;28;20111;-73
2021/05/19 00:55:54;;;;;;;2.42;1.02;;;;;;;;;;5053785;28;20395;-72
2021/05/19 00:58:20;;;;;;;1.00;0.73;;;;;;;;;;5047805;28;20444;-72
2021/05/19 01:00:45;;;;;;;3.03;1.05;;;;;;;;;;5050236;28;20032;-73
2021/05/19 01:03:10;;;;;;;1.80;1.10;;;;;;;;;;5051746;28;20108;-73
2021/05/19 01:05:43;;;;;;;3.10;0.80;;;;;;;;;;5048620;28;20029;-72
2021/05/19 01:10:52;;;;;;;4.07;1.00;;;;;;;;;;5047286;28;20155;-72
2021/05/19 01:13:17;;;;;;;1.67;0.73;;;;;;;;;;5050627;28;20069;-72
2021/05/19 01:15:43;;;;;;;2.17;0.70;;;;;;;;;;5055728;28;20391;-72
2021/05/19 01:18:08;;;;;;;1.40;0.75;;;;;;;;;;5056350;28;20472;-73
2021/05/19 01:20:34;;;;;;;0.60;0.50;;;;;;;;;;5054465;28;20041;-72
2021/05/19 01:23:00;;;;;;;1.95;0.73;;;;;;;;;;5050914;28;20602;-73
2021/05/19 01:25:25;;;;;;;2.40;0.93;;;;;;;;;;5049441;28;20035;-72
2021/05/19 01:27:54;;;;;;;1.33;0.80;;;;;;;;;;5061760;28;20459;-72
2021/05/19 01:30:19;;;;;;;1.48;0.85;;;;;;;;;;5053869;28;20403;-72
2021/05/19 01:32:44;;;;;;;1.67;0.77;;;;;;;;;;5056658;28;20109;-72
2021/05/19 01:35:09;;;;;;;0.80;0.75;;;;;;;;;;5064950;28;20077;-73
2021/05/19 01:37:37;;;;;;;0.95;0.80;;;;;;;;;;5051618;28;20051;-73
2021/05/19 01:40:02;;;;;;;1.00;0.55;;;;;;;;;;5052470;28;20107;-72
2021/05/19 01:42:28;;;;;;;0.77;0.65;;;;;;;;;;5056794;28;20602;-73
2021/05/19 01:44:54;;;;;;;2.80;0.88;;;;;;;;;;5060341;28;20059;-73
2021/05/19 01:47:20;;;;;;;1.60;0.82;;;;;;;;;;5063997;28;20077;-73
2021/05/19 01:49:45;;;;;;;1.30;0.75;;;;;;;;;;5061956;28;20032;-72
2021/05/19 01:52:11;;;;;;;2.38;0.80;;;;;;;;;;5059030;28;20009;-72
2021/05/19 01:54:37;;;;;;;3.47;1.10;;;;;;;;;;5050514;28;20144;-72
2021/05/19 01:57:02;;;;;;;1.05;0.80;;;;;;;;;;5059795;28;20119;-72
2021/05/19 01:59:28;;;;;;;2.58;0.98;;;;;;;;;;5057408;28;20470;-73
2021/05/19 02:01:53;;;;;;;2.10;0.90;;;;;;;;;;5050794;28;20016;-72
2021/05/19 02:04:18;;;;;;;2.08;0.80;;;;;;;;;;5051702;28;20021;-73
2021/05/19 02:06:57;;;;;;;2.53;1.00;;;;;;;;;;5053101;28;20021;-73
2021/05/19 02:09:23;;;;;;;3.17;1.00;;;;;;;;;;5034102;28;20440;-72
2021/05/19 02:11:48;;;;;;;1.30;0.80;;;;;;;;;;5054645;28;20029;-72
2021/05/19 02:14:14;;;;;;;2.63;1.00;;;;;;;;;;5059045;28;20268;-73
2021/05/19 02:16:39;;;;;;;2.08;0.77;;;;;;;;;;5060331;28;20484;-73
2021/05/19 02:19:06;;;;;;;1.73;0.98;;;;;;;;;;5067788;28;20024;-73
2021/05/19 02:21:32;;;;;;;1.20;0.77;;;;;;;;;;5050055;28;20416;-72
2021/05/19 02:24:00;;;;;;;1.60;0.85;;;;;;;;;;5049514;28;20021;-71
2021/05/19 02:26:25;;;;;;;2.40;1.05;;;;;;;;;;5061733;28;20027;-72
2021/05/19 02:28:50;;;;;;;1.13;0.75;;;;;;;;;;5056620;28;20471;-72
2021/05/19 02:31:16;;;;;;;1.92;1.00;;;;;;;;;;5061652;28;20120;-71
2021/05/19 02:33:41;;;;;;;1.63;0.80;;;;;;;;;;5062874;28;20129;-73
2021/05/19 02:36:06;;;;;;;2.65;0.98;;;;;;;;;;5064857;28;20066;-72
2021/05/19 02:38:34;;;;;;;2.22;1.02;;;;;;;;;;5057839;28;20056;-72
2021/05/19 02:40:59;;;;;;;1.80;0.90;;;;;;;;;;5049647;28;20028;-72
2021/05/19 02:43:24;;;;;;;1.33;0.80;;;;;;;;;;5031099;28;20480;-72
2021/05/19 02:45:49;;;;;;;1.63;0.82;;;;;;;;;;5049762;28;20023;-72
2021/05/19 02:48:15;;;;;;;3.90;1.30;;;;;;;;;;5049346;28;20537;-72
2021/05/19 02:50:40;;;;;;;2.15;1.25;;;;;;;;;;5055687;28;20021;-71
2021/05/19 02:53:05;;;;;;;2.17;0.90;;;;;;;;;;5049915;28;20029;-72
2021/05/19 02:55:31;;;;;;;4.75;1.05;;;;;;;;;;5051387;28;20563;-71
2021/05/19 02:57:57;;;;;;;2.95;1.08;;;;;;;;;;5032904;28;20128;-73
2021/05/19 03:00:22;;;;;;;4.45;1.10;;;;;;;;;;5054674;28;20508;-72
2021/05/19 03:02:47;;;;;;;1.70;1.00;;;;;;;;;;5048250;28;20032;-72
2021/05/19 03:05:12;;;;;;;4.55;1.30;;;;;;;;;;5057800;28;20024;-73
2021/05/19 03:07:37;;;;;;;2.97;1.30;;;;;;;;;;5058882;28;20036;-72
2021/05/19 03:10:03;;;;;;;3.80;1.30;;;;;;;;;;5054353;28;20084;-71
2021/05/19 03:12:28;;;;;;;2.03;1.00;;;;;;;;;;5048305;28;20009;-73
2021/05/19 03:14:53;;;;;;;2.17;1.10;;;;;;;;;;5054963;28;20025;-73
2021/05/19 03:17:18;;;;;;;3.42;1.15;;;;;;;;;;5052866;28;20025;-72
2021/05/19 03:19:44;;;;;;;1.65;1.27;;;;;;;;;;5047791;28;20083;-72
2021/05/19 03:22:09;;;;;;;2.20;1.20;;;;;;;;;;5048462;28;20115;-72
2021/05/19 03:24:34;;;;;;;2.22;1.30;;;;;;;;;;5054645;28;20017;-72
2021/05/19 03:26:59;;;;;;;2.97;1.30;;;;;;;;;;5055247;28;20029;-73
2021/05/19 03:29:24;;;;;;;3.05;1.30;;;;;;;;;;5049403;28;20047;-73
2021/05/19 03:31:49;;;;;;;4.10;1.40;;;;;;;;;;5051625;28;20043;-72
2021/05/19 03:34:15;;;;;;;3.80;1.35;;;;;;;;;;5055717;28;20560;-72
2021/05/19 03:36:40;;;;;;;1.60;1.23;;;;;;;;;;5029338;28;20449;-72
2021/05/19 03:39:08;;;;;;;3.67;1.50;;;;;;;;;;5057080;28;20021;-73
2021/05/19 03:41:33;;;;;;;2.22;1.10;;;;;;;;;;5047383;28;20033;-71
2021/05/19 03:43:58;;;;;;;2.53;1.23;;;;;;;;;;5051978;28;20019;-72
2021/05/19 03:46:23;;;;;;;2.03;1.48;;;;;;;;;;5050572;28;20029;-72
2021/05/19 03:48:50;;;;;;;3.97;1.50;;;;;;;;;;5056450;28;20056;-72
2021/05/19 03:51:15;;;;;;;2.35;1.40;;;;;;;;;;5061460;28;20021;-73
2021/05/19 03:53:41;;;;;;;2.25;1.52;;;;;;;;;;5050374;28;20021;-73
2021/05/19 03:56:06;;;;;;;4.20;1.70;;;;;;;;;;5055205;28;20567;-72
2021/05/19 03:58:31;;;;;;;3.90;2.00;;;;;;;;;;5054681;28;20725;-73
2021/05/19 04:00:56;;;;;;;4.90;2.33;;;;;;;;;;5045062;28;20029;-72
2021/05/19 04:03:22;;;;;;;3.13;1.85;;;;;;;;;;5066510;28;20048;-72
2021/05/19 04:05:47;;;;;;;4.88;1.98;;;;;;;;;;5056035;28;20029;-73
2021/05/19 04:08:12;;;;;;;3.70;2.30;;;;;;;;;;5054593;28;20032;-72
2021/05/19 04:10:37;;;;;;;3.50;2.13;;;;;;;;;;5051961;28;20533;-73
2021/05/19 04:13:05;;;;;;;3.45;2.22;;;;;;;;;;5047468;28;20766;-72
2021/05/19 04:15:31;;;;;;;4.32;2.33;;;;;;;;;;5054593;28;20098;-73
2021/05/19 04:17:57;;;;;;;5.43;2.40;;;;;;;;;;5061025;28;20032;-73
2021/05/19 04:20:22;;;;;;;5.55;2.05;;;;;;;;;;5049131;28;20480;-72
2021/05/19 04:22:48;;;;;;;3.55;1.98;;;;;;;;;;5051144;28;20028;-72
2021/05/19 04:25:13;;;;;;;3.40;2.30;;;;;;;;;;5054545;28;20025;-73
2021/05/19 04:27:38;;;;;;;4.90;2.63;;;;;;;;;;5057062;28;20075;-76
2021/05/19 04:30:04;;;;;;;5.00;2.53;;;;;;;;;;5048566;28;20024;-71
2021/05/19 04:32:30;;;;;;;5.55;2.78;;;;;;;;;;5047464;28;20063;-71
2021/05/19 04:34:55;;;;;;;6.85;2.63;;;;;;;;;;5032434;28;20040;-71
2021/05/19 04:37:20;;;;;;;5.25;2.80;;;;;;;;;;5049009;28;20053;-70
2021/05/19 04:39:45;;;;;;;4.55;3.10;;;;;;;;;;5059975;28;20095;-70
2021/05/19 04:42:10;;;;;;;4.55;2.88;;;;;;;;;;5060123;28;20451;-71
2021/05/19 04:44:36;;;;;;;4.93;2.85;;;;;;;;;;5061471;28;20024;-71
2021/05/19 04:47:01;;;;;;;6.50;2.90;;;;;;;;;;5051192;28;20036;-71
2021/05/19 04:49:26;;;;;;;3.42;2.42;;;;;;;;;;5051408;28;20017;-71
2021/05/19 04:51:52;;;;;;;4.60;2.50;;;;;;;;;;5058423;28;20545;-71
2021/05/19 04:54:17;;;;;;;4.03;2.60;;;;;;;;;;5061067;28;20518;-71
2021/05/19 04:56:42;;;;;;;8.00;3.00;;;;;;;;;;5053877;28;20033;-70
2021/05/19 04:59:08;;;;;;;4.75;2.97;;;;;;;;;;5056776;28;20096;-70
2021/05/19 05:01:33;;;;;;;4.75;2.75;;;;;;;;;;5048719;28;20021;-73
2021/05/19 05:03:59;;;;;;;4.40;2.70;;;;;;;;;;5049061;28;20023;-73
2021/05/19 05:06:24;;;;;;;5.72;2.80;;;;;;;;;;5039230;28;20415;-73
2021/05/19 05:08:49;;;;;;;3.47;2.47;;;;;;;;;;5042688;28;20083;-73
2021/05/19 05:11:15;;;;;;;5.18;2.40;;;;;;;;;;5046531;28;20411;-73
2021/05/19 05:13:40;;;;;;;3.45;1.95;;;;;;;;;;5047201;28;20016;-72
2021/05/19 05:16:05;;;;;;;3.70;2.20;;;;;;;;;;5027842;28;20474;-73
2021/05/19 05:18:37;;;;;;;3.85;2.28;;;;;;;;;;5056312;28;20597;-74
2021/05/19 05:21:03;;;;;;;3.80;2.40;;;;;;;;;;5068290;28;20351;-73
2021/05/19 05:23:29;;;;;;;2.72;2.05;;;;;;;;;;5045239;28;20047;-73
2021/05/19 05:25:54;;;;;;;6.88;2.67;;;;;;;;;;5054113;28;20029;-73
2021/05/19 05:28:19;;;;;;;7.70;2.90;;;;;;;;;;5058109;28;20449;-73
2021/05/19 05:30:44;;;;;;;3.95;2.72;;;;;;;;;;5051457;28;20569;-74
2021/05/19 05:33:10;;;;;;;7.38;2.97;;;;;;;;;;5057449;28;20044;-73
2021/05/19 05:35:35;;;;;;;4.35;2.67;;;;;;;;;;5053447;28;20112;-72
2021/05/19 05:38:00;;;;;;;5.05;2.97;;;;;;;;;;5062560;28;20013;-72
2021/05/19 05:40:25;;;;;;;6.47;3.08;;;;;;;;;;5070514;28;20028;-72
2021/05/19 05:42:50;;;;;;;5.72;3.08;;;;;;;;;;5070226;28;20024;-73
2021/05/19 05:45:15;;;;;;;4.50;2.78;;;;;;;;;;5057942;28;20067;-73
2021/05/19 05:47:41;;;;;;;5.30;3.30;;;;;;;;;;5037898;28;20081;-73
2021/05/19 05:50:06;;;;;;;4.82;3.08;;;;;;;;;;5057554;28;20053;-74
2021/05/19 05:52:31;;;;;;;7.78;3.63;;;;;;;;;;5043753;28;20027;-72
2021/05/19 05:54:57;;;;;;;6.40;3.25;;;;;;;;;;5044161;28;20041;-72
2021/05/19 05:57:22;;;;;;;8.68;3.42;;;;;;;;;;5043828;28;20210;-72
2021/05/19 05:59:47;;;;;;;6.95;3.60;;;;;;;;;;5050830;28;20025;-73
2021/05/19 06:02:12;;;;;;;5.82;3.78;;;;;;;;;;5042934;28;20346;-73
2021/05/19 06:04:38;;;;;;;6.25;3.67;;;;;;;;;;5047371;28;20392;-74
2021/05/19 06:07:03;;;;;;;7.38;3.83;;;;;;;;;;5048749;28;20012;-73
2021/05/19 06:09:28;;;;;;;6.88;4.25;;;;;;;;;;5045838;28;20490;-73
2021/05/19 06:11:53;;;;;;;6.38;3.83;;;;;;;;;;5050227;28;20020;-73
2021/05/19 06:14:20;;;;;;;8.00;3.92;;;;;;;;;;5049620;28;20028;-73
2021/05/19 06:16:45;;;;;;;8.15;4.07;;;;;;;;;;5051842;28;20052;-72
2021/05/19 06:19:11;;;;;;;7.15;4.68;;;;;;;;;;5052987;28;20118;-73
2021/05/19 06:21:36;;;;;;;8.93;4.40;;;;;;;;;;5046221;28;20063;-73
2021/05/19 06:24:01;;;;;;;6.05;4.20;;;;;;;;;;5050446;28;20124;-72
2021/05/19 06:26:26;;;;;;;6.30;4.13;;;;;;;;;;5055073;28;20495;-73
2021/05/19 06:28:52;;;;;;;4.85;3.75;;;;;;;;;;5046228;28;20569;-73
2021/05/19 06:31:17;;;;;;;7.50;4.32;;;;;;;;;;5037038;28;20025;-72
2021/05/19 06:33:42;;;;;;;7.07;4.18;;;;;;;;;;5053407;28;20446;-73
2021/05/19 06:36:08;;;;;;;5.82;4.13;;;;;;;;;;5050589;28;20116;-73
2021/05/19 06:38:33;;;;;;;7.65;4.78;;;;;;;;;;5034565;28;20373;-73
2021/05/19 06:40:58;;;;;;;9.23;4.50;;;;;;;;;;5051540;28;20537;-73
2021/05/19 06:43:23;;;;;;;8.65;4.70;;;;;;;;;;5052397;28;20016;-74
2021/05/19 06:45:49;;;;;;;7.65;4.85;;;;;;;;;;5062051;28;20032;-73
2021/05/19 06:48:14;;;;;;;8.25;4.72;;;;;;;;;;5062771;28;20043;-73
2021/05/19 06:50:39;;;;;;;7.30;4.72;;;;;;;;;;5056692;28;20032;-73
2021/05/19 06:53:04;;;;;;;8.60;5.22;;;;;;;;;;5052057;28;20104;-72
2021/05/19 06:55:29;;;;;;;9.98;5.22;;;;;;;;;;5053819;28;20059;-72
2021/05/19 06:57:55;;;;;;;10.38;5.65;;;;;;;;;;5051409;28;20411;-73
2021/05/19 07:00:20;;;;;;;8.55;5.60;;;;;;;;;;5048240;28;20086;-73
2021/05/19 07:02:45;;;;;;;8.02;5.10;;;;;;;;;;5054287;28;20124;-73
2021/05/19 07:05:11;;;;;;;8.65;5.63;;;;;;;;;;5049837;28;20039;-73
2021/05/19 07:07:36;;;;;;;9.38;5.50;;;;;;;;;;5069395;28;20452;-74
2021/05/19 07:10:03;;;;;;;8.15;5.68;;;;;;;;;;5069123;28;20111;-74
2021/05/19 07:12:28;;;;;;;7.25;5.28;;;;;;;;;;5049117;28;20388;-72
2021/05/19 07:14:58;;;;;;;9.02;6.00;;;;;;;;;;5053746;28;20028;-73
2021/05/19 07:17:23;;;;;;;8.50;5.10;;;;;;;;;;5047565;28;20025;-72
2021/05/19 07:19:48;;;;;;;8.30;5.38;;;;;;;;;;5046004;28;20095;-73
2021/05/19 07:22:13;;;;;;;8.65;5.65;;;;;;;;;;5049661;28;20487;-74
2021/05/19 07:24:38;;;;;;;6.05;4.35;;;;;;;;;;5048368;28;20376;-73
2021/05/19 07:27:04;;;;;;;5.82;4.72;;;;;;;;;;5054362;28;20467;-74
2021/05/19 07:29:29;;;;;;;6.25;4.97;;;;;;;;;;5063269;28;20032;-74
2021/05/19 07:31:54;;;;;;;5.78;4.38;;;;;;;;;;5058971;28;20112;-74
2021/05/19 07:34:19;;;;;;;8.10;5.25;;;;;;;;;;5048711;28;20446;-73
2021/05/19 07:36:45;;;;;;;6.78;4.97;;;;;;;;;;5049378;28;20480;-74
2021/05/19 07:39:10;;;;;;;7.25;4.95;;;;;;;;;;5064599;28;20016;-74
2021/05/19 07:41:35;;;;;;;7.20;4.82;;;;;;;;;;5068990;28;20107;-75
2021/05/19 07:44:01;;;;;;;5.93;4.70;;;;;;;;;;5068396;28;20044;-74
2021/05/19 07:46:26;;;;;;;9.10;5.60;;;;;;;;;;5054554;28;20020;-73
2021/05/19 07:48:51;;;;;;;7.20;5.53;;;;;;;;;;5051222;28;20388;-74
2021/05/19 07:51:16;;;;;;;7.75;5.43;;;;;;;;;;5068647;28;20487;-73
2021/05/19 07:53:42;;;;;;;7.57;5.53;;;;;;;;;;5055107;28;20017;-72
2021/05/19 07:56:18;;;;;;;8.20;5.60;;;;;;;;;;5044213;28;20732;-73
2021/05/19 07:58:48;;;;;;;6.43;5.30;;;;;;;;;;5057249;28;20100;-73
2021/05/19 08:01:28;;;;;;;6.78;5.05;;;;;;;;;;5068907;28;20023;-73
2021/05/19 08:03:54;;;;;;;8.77;5.65;;;;;;;;;;5061738;28;20058;-74
2021/05/19 08:06:19;;;;;;;8.85;5.30;;;;;;;;;;5052844;28;20123;-75
2021/05/19 08:08:45;;;;;;;6.82;5.32;;;;;;;;;;5054651;28;20017;-74
2021/05/19 08:11:10;;;;;;;6.65;4.78;;;;;;;;;;5048936;28;20021;-74
2021/05/19 08:13:39;;;;;;;5.97;4.55;;;;;;;;;;5062487;28;20024;-75
2021/05/19 08:16:05;;;;;;;6.75;4.55;;;;;;;;;;5053564;28;20100;-72
2021/05/19 08:18:30;;;;;;;8.35;5.38;;;;;;;;;;5057937;28;20078;-75
2021/05/19 08:20:55;;;;;;;8.13;5.70;;;;;;;;;;5059938;28;20096;-74
2021/05/19 08:23:20;;;;;;;7.90;5.43;;;;;;;;;;5046942;28;20128;-74
2021/05/19 08:25:46;;;;;;;7.32;5.00;;;;;;;;;;5072381;28;20086;-72
2021/05/19 08:28:11;;;;;;;7.57;5.45;;;;;;;;;;5072998;28;20021;-73
2021/05/19 08:30:36;;;;;;;5.82;4.68;;;;;;;;;;5067394;28;20128;-74
2021/05/19 08:33:01;;;;;;;6.65;4.47;;;;;;;;;;5063170;28;20163;-73
2021/05/19 08:35:26;;;;;;;6.90;4.55;;;;;;;;;;5072711;28;20059;-74
2021/05/19 08:37:52;;;;;;;7.15;4.90;;;;;;;;;;5072859;28;20048;-74
2021/05/19 08:40:17;;;;;;;7.60;5.65;;;;;;;;;;5053580;28;20128;-75
2021/05/19 08:42:42;;;;;;;7.75;6.05;;;;;;;;;;5061578;28;20036;-74
2021/05/19 08:45:08;;;;;;;8.73;5.93;;;;;;;;;;5052712;28;20021;-74
2021/05/19 08:47:34;;;;;;;8.57;5.90;;;;;;;;;;5052980;28;20029;-74
2021/05/19 08:49:59;;;;;;;7.50;5.85;;;;;;;;;;5052860;28;20075;-75
2021/05/19 08:52:24;;;;;;;17.00;6.75;;;;;;;;;;5052535;28;20190;-74
2021/05/19 08:54:53;;;;;;;7.22;6.00;;;;;;;;;;5053450;28;20558;-76
2021/05/19 08:57:18;;;;;;;10.05;6.50;;;;;;;;;;5061595;28;20032;-75
2021/05/19 08:59:43;;;;;;;8.55;6.13;;;;;;;;;;5071780;28;20017;-73
2021/05/19 09:02:13;;;;;;;8.02;6.05;;;;;;;;;;5063222;28;20543;-74
2021/05/19 09:04:39;;;;;;;7.68;5.70;;;;;;;;;;5061293;28;20538;-73
2021/05/19 09:07:05;;;;;;;7.43;6.03;;;;;;;;;;5067478;28;20124;-74
2021/05/19 09:09:31;;;;;;;7.75;6.07;;;;;;;;;;5071501;28;20042;-74
2021/05/19 09:12:01;;;;;;;6.85;5.63;;;;;;;;;;5070658;28;20028;-74
2021/05/19 09:14:26;;;;;;;;;;;;;;;;;;5060190;28;20499;-73
2021/05/19 09:16:52;;;;;;;8.18;5.88;;;;;;;;;;5071728;28;20013;-75
2021/05/19 09:19:40;;;;;;;7.03;5.20;;;;;;;;;;5071438;28;20255;-73
2021/05/19 09:22:14;;;;;;;7.68;5.95;;;;;;;;;;5036797;28;20492;-74
2021/05/19 09:24:41;;;;;;;8.50;5.75;;;;;;;;;;5052251;28;20107;-74
2021/05/19 09:27:07;;;;;;;7.65;5.80;;;;;;;;;;5059878;28;20112;-73
2021/05/19 09:29:33;;;;;;;6.88;5.82;;;;;;;;;;5051614;28;20455;-74
2021/05/19 09:32:02;;;;;;;11.43;5.82;;;;;;;;;;5052859;28;20071;-75
2021/05/19 09:34:32;;;;;;;10.07;5.80;;;;;;;;;;5051970;28;20442;-74
2021/05/19 09:37:17;;;;;;;6.13;4.80;;;;;;;;;;5052138;28;20110;-74
2021/05/19 09:39:48;;;;;;;7.95;5.05;;;;;;;;;;5057866;28;20024;-74
2021/05/19 09:42:13;;;;;;;9.50;5.28;;;;;;;;;;5057792;28;20464;-74
2021/05/19 09:44:39;;;;;;;6.85;5.00;;;;;;;;;;5058092;28;20025;-74
2021/05/19 09:47:04;;;;;;;6.47;5.15;;;;;;;;;;5063788;28;20035;-73
2021/05/19 09:49:29;;;;;;;8.18;5.03;;;;;;;;;;5058142;28;20032;-74
2021/05/19 09:51:57;;;;;;;8.00;4.80;;;;;;;;;;5050990;28;20808;-76
2021/05/19 09:54:26;;;;;;;7.78;6.00;;;;;;;;;;5056805;28;20112;-74
2021/05/19 09:57:04;;;;;;;8.38;5.68;;;;;;;;;;5062572;28;20403;-73
2021/05/19 09:59:29;;;;;;;10.70;6.07;;;;;;;;;;5051306;28;20400;-74
2021/05/19 10:01:57;;;;;;;7.93;6.50;;;;;;;;;;5057656;28;20029;-74
2021/05/19 10:04:26;;;;;;;9.48;6.60;;;;;;;;;;5070560;28;20356;-74
2021/05/19 10:06:51;;;;;;;8.70;7.28;;;;;;;;;;5062742;28;21096;-73
2021/05/19 10:09:17;;;;;;;9.95;6.10;;;;;;;;;;5063628;28;20047;-75
2021/05/19 10:11:43;;;;;;;8.10;6.45;;;;;;;;;;5058561;28;20021;-73
2021/05/19 10:14:11;;;;;;;7.57;4.97;;;;;;;;;;5063041;28;20103;-73
2021/05/19 10:16:36;;;;;;;6.38;4.68;;;;;;;;;;5063388;28;20058;-75
2021/05/19 10:19:02;;;;;;;7.65;5.15;;;;;;;;;;5063121;28;20017;-75
2021/05/19 10:21:31;;;;;;;8.98;6.25;;;;;;;;;;5070094;28;20032;-74
2021/05/19 10:24:03;;;;;;;9.50;5.95;;;;;;;;;;5057146;28;20017;-74
2021/05/19 10:26:32;;;;;;;8.30;5.85;;;;;;;;;;5058209;28;20036;-75
2021/05/19 10:28:59;;;;;;;9.25;5.97;;;;;;;;;;5032652;28;20112;-74
2021/05/19 10:31:31;;;;;;;11.38;6.45;;;;;;;;;;5050424;28;20033;-75
2021/05/19 10:33:58;;;;;;;8.52;6.25;;;;;;;;;;5050530;28;20590;-75
2021/05/19 10:36:23;;;;;;;9.18;5.88;;;;;;;;;;5050539;28;20025;-74
2021/05/19 10:39:08;;;;;;;9.24;6.74;;;;;;;;;;5056332;28;20090;-74
2021/05/19 10:41:41;;;;;;;8.02;6.07;;;;;;;;;;5051508;28;20021;-75
2021/05/19 10:44:10;;;;;;;10.23;6.63;;;;;;;;;;5069999;28;20021;-73
2021/05/19 10:47:21;;;;;;;7.82;5.65;;;;;;;;;;5054984;28;20025;-75
2021/05/19 10:49:49;;;;;;;7.93;5.15;;;;;;;;;;5048641;28;20180;-74
2021/05/19 10:52:36;;;;;;;9.52;4.97;;;;;;;;;;5052643;28;20021;-74
2021/05/19 10:58:00;;;;;;;7.25;4.70;;;;;;;;;;5057123;28;20031;-74
2021/05/19 11:00:26;;;;;;;7.57;4.85;;;;;;;;;;5065047;28;20033;-74
2021/05/19 11:02:52;;;;;;;9.73;4.93;;;;;;;;;;5062908;28;20032;-73
2021/05/19 11:05:17;;;;;;;6.18;3.65;;;;;;;;;;5069105;28;20106;-73
2021/05/19 11:08:11;;;;;;;5.00;3.47;;;;;;;;;;5056528;28;20316;-73
2021/05/19 11:10:51;;;;;;;5.88;3.20;;;;;;;;;;5046468;28;20115;-73
2021/05/19 11:13:16;;;;;;;;;;;;;;;;;;5053577;28;20028;-73
2021/05/19 11:21:13;;;;;;;5.10;2.97;;;;;;;;;;5060621;28;20025;-74
2021/05/19 11:23:38;;;;;;;6.15;3.60;;;;;;;;;;5052861;28;20094;-74
2021/05/19 11:26:07;;;;;;;4.35;3.08;;;;;;;;;;5053319;28;20024;-75
2021/05/19 11:28:32;;;;;;;4.50;3.30;;;;;;;;;;5068711;28;20031;-74
2021/05/19 11:31:08;;;;;;;5.18;3.70;;;;;;;;;;5062517;28;20263;-75
2021/05/19 11:33:48;;;;;;;6.63;3.97;;;;;;;;;;5054906;28;20049;-75
2021/05/19 11:36:26;;;;;;;5.05;3.50;;;;;;;;;;5055347;28;20093;-74
2021/05/19 11:38:51;;;;;;;3.75;2.80;;;;;;;;;;5062478;28;20031;-74
2021/05/19 11:41:20;;;;;;;6.00;4.20;;;;;;;;;;5068556;28;20024;-75
2021/05/19 11:43:45;;;;;;;6.40;3.70;;;;;;;;;;5037555;28;20521;-74
2021/05/19 11:46:11;;;;;;;5.25;3.25;;;;;;;;;;5068857;28;20056;-74
2021/05/19 11:48:38;;;;;;;5.13;3.83;;;;;;;;;;5068479;28;20020;-74
2021/05/19 11:51:14;;;;;;;5.25;3.20;;;;;;;;;;5063762;28;20024;-74
2021/05/19 11:53:52;;;;;;;4.20;3.30;;;;;;;;;;5056035;28;20024;-73
2021/05/19 11:56:17;;;;;;;5.40;3.35;;;;;;;;;;5030761;28;20044;-75
2021/05/19 11:58:42;;;;;;;4.15;3.00;;;;;;;;;;5042061;28;20016;-74
2021/05/19 12:01:07;;;;;;;5.28;3.50;;;;;;;;;;5061448;28;20025;-74
2021/05/19 12:03:34;;;;;;;4.72;3.35;;;;;;;;;;5049584;28;20108;-74
2021/05/19 12:06:01;;;;;;;3.72;3.00;;;;;;;;;;5065067;28;20036;-74
2021/05/19 12:08:37;;;;;;;5.32;3.35;;;;;;;;;;5054085;28;20463;-73
2021/05/19 12:11:02;;;;;;;3.75;2.80;;;;;;;;;;5042359;28;20028;-74
2021/05/19 12:13:29;;;;;;;4.15;3.10;;;;;;;;;;5049430;28;20028;-74
2021/05/19 12:15:54;;;;;;;4.22;2.65;;;;;;;;;;5048543;28;20032;-75
2021/05/19 12:18:19;;;;;;;6.53;3.75;;;;;;;;;;5067169;28;20074;-74
2021/05/19 12:20:47;;;;;;;4.03;2.80;;;;;;;;;;5060690;28;20021;-74
2021/05/19 12:23:13;;;;;;;4.75;2.58;;;;;;;;;;5058962;28;20557;-74
2021/05/19 12:25:42;;;;;;;3.60;2.70;;;;;;;;;;5055387;28;20021;-74
2021/05/19 12:28:09;;;;;;;3.15;2.28;;;;;;;;;;5050172;28;20068;-74
2021/05/19 12:30:42;;;;;;;4.13;2.70;;;;;;;;;;5030766;28;20035;-74
2021/05/19 12:33:10;;;;;;;3.35;2.42;;;;;;;;;;5060293;28;20120;-74
2021/05/19 12:35:41;;;;;;;3.00;1.95;;;;;;;;;;5062688;28;20102;-74
2021/05/19 12:38:08;;;;;;;5.22;2.80;;;;;;;;;;5047605;28;20380;-74
2021/05/19 12:40:35;;;;;;;5.82;2.72;;;;;;;;;;5048483;28;20026;-73
2021/05/19 12:43:04;;;;;;;4.45;2.78;;;;;;;;;;5061247;28;20017;-73
2021/05/19 12:45:42;;;;;;;3.87;2.97;;;;;;;;;;5052988;28;20021;-75
2021/05/19 12:48:11;;;;;;;4.45;3.47;;;;;;;;;;5042939;28;20270;-74
2021/05/19 12:50:36;;;;;;;4.85;4.00;;;;;;;;;;5030591;28;20423;-74
2021/05/19 12:53:02;;;;;;;4.78;3.88;;;;;;;;;;5065342;28;20082;-74
2021/05/19 12:55:27;;;;;;;4.75;3.33;;;;;;;;;;5064872;28;20025;-75
2021/05/19 12:58:04;;;;;;;5.07;3.58;;;;;;;;;;5049218;28;20020;-74
2021/05/19 13:00:29;;;;;;;5.07;3.20;;;;;;;;;;5054838;28;20047;-76
2021/05/19 13:02:54;;;;;;;5.65;2.78;;;;;;;;;;5051495;28;20060;-74
2021/05/19 13:05:24;;;;;;;4.50;2.40;;;;;;;;;;5037772;28;20032;-75
2021/05/19 13:07:51;;;;;;;5.53;2.83;;;;;;;;;;5047942;28;20029;-73
2021/05/19 13:10:36;;;;;;;3.50;2.30;;;;;;;;;;5050218;28;20056;-76
2021/05/19 13:15:38;;;;;;;3.38;2.35;;;;;;;;;;5057406;28;20044;-76
2021/05/19 13:18:13;;;;;;;3.55;2.40;;;;;;;;;;5048361;28;20055;-76
2021/05/19 13:20:47;;;;;;;4.45;2.45;;;;;;;;;;5051391;28;20021;-75
2021/05/19 13:23:13;;;;;;;3.20;2.47;;;;;;;;;;5047796;28;20045;-75
2021/05/19 13:25:38;;;;;;;4.10;2.60;;;;;;;;;;5048095;28;20417;-76
2021/05/19 13:28:06;;;;;;;3.92;2.03;;;;;;;;;;5045660;28;20096;-74
2021/05/19 13:30:31;;;;;;;4.00;2.40;;;;;;;;;;5052626;28;20432;-75
2021/05/19 13:38:14;;;;;;;2.70;2.20;;;;;;;;;;5048970;28;20094;-74
2021/05/19 13:40:40;;;;;;;2.42;1.55;;;;;;;;;;5052124;28;20131;-73
2021/05/19 13:43:05;;;;;;;2.90;2.10;;;;;;;;;;5051446;28;20500;-75
2021/05/19 13:45:30;;;;;;;2.53;1.88;;;;;;;;;;5053090;28;20012;-74
2021/05/19 13:47:55;;;;;;;2.50;1.75;;;;;;;;;;5051683;28;20449;-73
2021/05/19 13:50:20;;;;;;;2.13;1.67;;;;;;;;;;5041510;28;20028;-74
2021/05/19 13:52:46;;;;;;;2.03;1.50;;;;;;;;;;5052396;28;20025;-75
2021/05/19 13:55:11;;;;;;;2.95;1.55;;;;;;;;;;5060416;28;20021;-74
2021/05/19 13:57:36;;;;;;;2.72;1.40;;;;;;;;;;5062262;28;20025;-73
2021/05/19 14:00:02;;;;;;;2.63;1.60;;;;;;;;;;5057081;28;20460;-73
2021/05/19 14:02:29;;;;;;;2.78;1.73;;;;;;;;;;5051437;28;20025;-74
2021/05/19 14:04:55;;;;;;;1.80;1.50;;;;;;;;;;5056371;28;20068;-75
2021/05/19 14:07:20;;;;;;;2.15;1.70;;;;;;;;;;5056494;28;20051;-74
2021/05/19 14:09:46;;;;;;;1.63;1.38;;;;;;;;;;5062096;28;20414;-75
2021/05/19 14:14:57;;;;;;;3.03;1.70;;;;;;;;;;5060366;28;20103;-74
2021/05/19 14:28:00;;;;;;;1.92;1.60;;;;;;;;;;5055623;28;20478;-74
2021/05/19 14:30:25;;;;;;;2.08;1.33;;;;;;;;;;5049510;28;20040;-74
2021/05/19 14:32:51;;;;;;;1.80;1.20;;;;;;;;;;5053252;28;20040;-74
2021/05/19 15:01:50;;;;;;;1.67;1.05;;;;;;;;;;5053826;28;20035;-72
2021/05/19 15:04:16;;;;;;;1.58;1.10;;;;;;;;;;5051261;28;20032;-73
2021/05/19 15:06:41;;;;;;;2.05;1.00;;;;;;;;;;5037387;28;20029;-74
2021/05/19 15:09:10;;;;;;;1.95;1.20;;;;;;;;;;5046779;28;20371;-73
2021/05/19 15:11:35;;;;;;;3.22;1.00;;;;;;;;;;5048384;28;20107;-75
2021/05/19 15:14:01;;;;;;;1.70;0.93;;;;;;;;;;5051248;28;20512;-75
2021/05/19 15:16:26;;;;;;;1.20;1.00;;;;;;;;;;5059446;28;20033;-74
2021/05/19 15:18:52;;;;;;;1.75;1.05;;;;;;;;;;5053761;28;20543;-74
2021/05/19 15:21:17;;;;;;;1.35;1.10;;;;;;;;;;5054771;28;20025;-74
2021/05/19 15:23:42;;;;;;;2.25;1.08;;;;;;;;;;5046485;28;20272;-74
2021/05/19 15:26:07;;;;;;;1.80;1.10;;;;;;;;;;5048121;28;20030;-73
2021/05/19 15:28:32;;;;;;;2.35;1.17;;;;;;;;;;5043376;28;20091;-74
2021/05/19 15:30:58;;;;;;;2.08;1.20;;;;;;;;;;5051193;28;20037;-74
2021/05/19 15:33:24;;;;;;;1.10;1.00;;;;;;;;;;5053634;28;20127;-73
2021/05/19 15:35:49;;;;;;;1.30;1.00;;;;;;;;;;5053013;28;20037;-73
2021/05/19 15:38:15;;;;;;;2.53;1.00;;;;;;;;;;5048311;28;20119;-74